createdAt,value
2018-10-06T00:00:23.231Z,4.53
2018-10-06T00:02:52.265Z,5.10
2018-10-06T00:05:21.253Z,5.30
2018-10-06T00:07:50.177Z,5.20
2018-10-06T00:10:19.114Z,6.37
2018-10-06T00:12:48.014Z,7.07
2018-10-06T00:15:16.931Z,5.77
2018-10-06T00:17:45.870Z,5.63
2018-10-06T00:20:14.781Z,5.30
2018-10-06T00:22:43.708Z,5.03
2018-10-06T00:25:12.641Z,4.87
2018-10-06T00:27:41.648Z,5.20
2018-10-06T00:30:10.484Z,6.37
2018-10-06T00:32:39.396Z,5.83
2018-10-06T00:35:08.337Z,6.10
2018-10-06T00:37:37.295Z,6.53
2018-10-06T00:40:06.229Z,5.80
2018-10-06T00:42:35.224Z,5.53
2018-10-06T00:45:04.110Z,5.20
2018-10-06T00:47:33.075Z,5.00
2018-10-06T00:50:02.017Z,6.57
2018-10-06T00:52:30.950Z,7.07
2018-10-06T00:54:59.899Z,7.27
2018-10-06T00:57:28.858Z,7.50
2018-10-06T00:59:57.797Z,7.30
2018-10-06T01:02:26.753Z,6.83
2018-10-06T01:04:55.655Z,7.73
2018-10-06T01:07:24.867Z,7.67
2018-10-06T01:09:53.811Z,6.93
2018-10-06T01:12:22.714Z,6.53
2018-10-06T01:14:51.659Z,8.00
2018-10-06T01:17:20.576Z,7.27
2018-10-06T01:19:49.504Z,7.23
2018-10-06T01:22:18.437Z,6.93
2018-10-06T01:24:47.370Z,7.00
2018-10-06T01:27:16.356Z,6.53
2018-10-06T01:29:45.302Z,9.60
2018-10-06T01:32:14.260Z,8.63
2018-10-06T01:34:43.186Z,8.10
2018-10-06T01:37:12.134Z,9.33
2018-10-06T01:39:41.095Z,9.87
2018-10-06T01:42:09.989Z,12.07
2018-10-06T01:44:38.930Z,12.53
2018-10-06T01:47:07.923Z,10.30
2018-10-06T01:49:36.881Z,9.97
2018-10-06T01:52:05.869Z,10.57
2018-10-06T01:54:34.820Z,10.43
2018-10-06T01:57:03.760Z,9.77
2018-10-06T01:59:32.690Z,8.47
2018-10-06T02:02:01.592Z,9.40
2018-10-06T02:04:30.540Z,8.60
2018-10-06T02:06:59.480Z,8.10
2018-10-06T02:09:28.440Z,8.50
2018-10-06T02:11:57.391Z,8.30
2018-10-06T02:14:26.310Z,10.13
2018-10-06T02:16:55.278Z,11.60
2018-10-06T02:19:24.188Z,8.40
2018-10-06T02:21:53.121Z,7.57
2018-10-06T02:24:22.044Z,8.70
2018-10-06T02:26:50.969Z,9.37
2018-10-06T02:29:19.943Z,10.87
2018-10-06T02:31:48.884Z,10.23
2018-10-06T02:34:17.812Z,12.23
2018-10-06T02:36:46.799Z,9.07
2018-10-06T02:39:15.712Z,9.97
2018-10-06T02:41:44.676Z,9.40
2018-10-06T02:44:13.597Z,9.20
2018-10-06T02:46:42.538Z,10.67
2018-10-06T02:49:11.470Z,8.70
2018-10-06T02:51:40.452Z,10.00
2018-10-06T02:54:09.416Z,9.93
2018-10-06T02:56:38.324Z,9.60
2018-10-06T02:59:07.352Z,9.70
2018-10-06T03:01:36.264Z,11.03
2018-10-06T03:04:05.257Z,9.10
2018-10-06T03:06:34.178Z,9.67
2018-10-06T03:09:03.494Z,9.57
2018-10-06T03:11:32.456Z,10.37
2018-10-06T03:14:01.384Z,11.27
2018-10-06T03:16:30.327Z,11.40
2018-10-06T03:18:59.285Z,10.03
2018-10-06T03:21:28.199Z,9.97
2018-10-06T03:23:57.124Z,10.60
2018-10-06T03:26:26.275Z,9.53
2018-10-06T03:28:55.171Z,9.23
2018-10-06T03:31:24.146Z,9.77
2018-10-06T03:33:53.079Z,10.57
2018-10-06T03:36:22.024Z,10.37
2018-10-06T03:38:50.934Z,11.27
2018-10-06T03:41:19.869Z,13.07
2018-10-06T03:43:48.771Z,12.55
2018-10-06T03:46:17.723Z,13.17
2018-10-06T03:48:46.647Z,10.73
2018-10-06T03:51:15.577Z,10.13
2018-10-06T03:53:44.498Z,10.13
2018-10-06T03:56:13.435Z,10.30
2018-10-06T03:58:42.403Z,11.17
2018-10-06T04:01:11.390Z,10.80
2018-10-06T04:03:40.304Z,10.63
2018-10-06T04:06:09.250Z,12.57
2018-10-06T04:08:38.176Z,12.73
2018-10-06T04:11:07.148Z,15.48
2018-10-06T04:13:36.071Z,12.87
2018-10-06T04:16:05.041Z,12.30
2018-10-06T04:18:33.984Z,13.23
2018-10-06T04:21:02.932Z,12.97
2018-10-06T04:23:31.891Z,13.30
2018-10-06T04:26:00.825Z,16.97
2018-10-06T04:28:29.826Z,17.07
2018-10-06T04:30:58.649Z,14.70
2018-10-06T04:33:27.607Z,14.70
2018-10-06T04:35:56.520Z,14.17
2018-10-06T04:38:25.489Z,17.37
2018-10-06T04:40:54.419Z,17.67
2018-10-06T04:43:23.349Z,17.67
2018-10-06T04:45:52.287Z,16.80
2018-10-06T04:48:21.210Z,16.80
2018-10-06T04:50:50.162Z,16.20
2018-10-06T04:53:19.153Z,21.27
2018-10-06T04:55:48.023Z,17.80
2018-10-06T04:58:16.962Z,17.57
2018-10-06T05:00:45.896Z,18.00
2018-10-06T05:03:14.861Z,17.10
2018-10-06T05:05:43.814Z,16.67
2018-10-06T05:08:12.753Z,16.50
2018-10-06T05:10:41.717Z,17.17
2018-10-06T05:13:10.655Z,16.93
2018-10-06T05:15:39.620Z,16.87
2018-10-06T05:18:08.607Z,19.07
2018-10-06T05:20:37.595Z,17.73
2018-10-06T05:23:06.624Z,16.93
2018-10-06T05:25:35.560Z,16.87
2018-10-06T05:28:04.548Z,19.03
2018-10-06T05:30:33.508Z,19.43
2018-10-06T05:33:02.436Z,15.60
2018-10-06T05:35:31.417Z,17.43
2018-10-06T05:38:00.356Z,21.63
2018-10-06T05:40:29.315Z,19.13
2018-10-06T05:42:58.245Z,18.73
2018-10-06T05:45:27.264Z,18.37
2018-10-06T05:47:56.203Z,17.97
2018-10-06T05:50:25.151Z,18.10
2018-10-06T05:52:54.082Z,19.63
2018-10-06T05:55:23.032Z,17.47
2018-10-06T05:57:52.028Z,16.07
2018-10-06T06:00:20.969Z,19.27
2018-10-06T06:02:49.925Z,20.07
2018-10-06T06:05:18.841Z,22.23
2018-10-06T06:07:47.774Z,20.13
2018-10-06T06:10:16.779Z,23.13
2018-10-06T06:12:45.739Z,25.90
2018-10-06T06:15:14.687Z,21.80
2018-10-06T06:17:43.637Z,20.03
2018-10-06T06:20:12.548Z,23.70
2018-10-06T06:22:41.516Z,25.33
2018-10-06T06:25:10.455Z,24.60
2018-10-06T06:27:39.395Z,32.95
2018-10-06T06:30:08.466Z,31.63
2018-10-06T06:32:37.415Z,32.30
2018-10-06T06:35:06.585Z,29.83
2018-10-06T06:37:35.552Z,29.63
2018-10-06T06:40:05.047Z,34.33
2018-10-06T06:42:34.003Z,27.23
2018-10-06T06:45:02.949Z,29.60
2018-10-06T06:47:31.895Z,29.17
2018-10-06T06:50:00.827Z,28.10
2018-10-06T06:52:29.766Z,28.70
2018-10-06T06:54:58.766Z,26.70
2018-10-06T06:57:27.666Z,28.20
2018-10-06T06:59:56.614Z,27.80
2018-10-06T07:02:25.553Z,29.50
2018-10-06T07:04:54.488Z,26.93
2018-10-06T07:07:23.511Z,27.67
2018-10-06T07:09:52.433Z,26.97
2018-10-06T07:12:21.381Z,27.57
2018-10-06T07:14:50.301Z,27.33
2018-10-06T07:17:19.248Z,25.60
2018-10-06T07:19:48.180Z,25.77
2018-10-06T07:22:17.172Z,25.33
2018-10-06T07:24:46.127Z,24.53
2018-10-06T07:27:15.043Z,24.33
2018-10-06T07:29:43.973Z,24.13
2018-10-06T07:32:12.955Z,24.73
2018-10-06T07:34:41.913Z,22.23
2018-10-06T07:37:11.039Z,21.70
2018-10-06T07:39:40.000Z,23.87
2018-10-06T07:42:09.057Z,20.87
2018-10-06T07:44:38.017Z,23.02
2018-10-06T07:47:07.055Z,22.40
2018-10-06T07:49:35.974Z,20.67
2018-10-06T07:52:04.967Z,18.60
2018-10-06T07:54:33.916Z,19.60
2018-10-06T07:57:02.923Z,18.87
2018-10-06T07:59:31.856Z,19.10
2018-10-06T08:02:00.822Z,17.97
2018-10-06T08:04:29.801Z,18.73
2018-10-06T08:06:58.796Z,18.20
2018-10-06T08:09:27.790Z,17.73
2018-10-06T08:11:56.723Z,17.50
2018-10-06T08:14:25.682Z,17.17
2018-10-06T08:16:54.636Z,16.00
2018-10-06T08:19:23.584Z,15.33
2018-10-06T08:21:52.533Z,14.53
2018-10-06T08:24:21.514Z,14.37
2018-10-06T08:26:50.495Z,14.40
2018-10-06T08:29:19.430Z,16.67
2018-10-06T08:31:49.229Z,14.13
2018-10-06T08:34:18.204Z,14.83
2018-10-06T08:36:47.193Z,13.63
2018-10-06T08:39:16.147Z,13.50
2018-10-06T08:41:45.124Z,12.80
2018-10-06T08:44:14.046Z,14.60
2018-10-06T08:46:43.084Z,16.37
2018-10-06T08:49:12.066Z,12.33
2018-10-06T08:51:41.028Z,12.93
2018-10-06T08:54:10.093Z,12.27
2018-10-06T08:56:39.041Z,13.77
2018-10-06T08:59:08.335Z,12.80
2018-10-06T09:01:37.324Z,11.90
2018-10-06T09:04:06.556Z,12.67
2018-10-06T09:06:35.609Z,13.80
2018-10-06T09:09:06.131Z,14.30
2018-10-06T09:11:35.020Z,14.07
2018-10-06T09:14:04.138Z,15.23
2018-10-06T09:16:33.079Z,15.20
2018-10-06T09:19:02.610Z,13.67
2018-10-06T09:21:31.645Z,35.83
2018-10-06T09:24:00.628Z,13.67
2018-10-06T09:26:29.644Z,12.93
2018-10-06T09:28:58.562Z,12.00
2018-10-06T09:31:27.538Z,11.87
2018-10-06T09:33:56.734Z,12.87
2018-10-06T09:36:25.702Z,11.87
2018-10-06T09:38:54.679Z,11.78
2018-10-06T09:41:23.759Z,11.13
2018-10-06T09:43:52.825Z,15.63
2018-10-06T09:46:21.777Z,12.40
2018-10-06T09:48:51.177Z,15.00
2018-10-06T09:51:20.147Z,13.23
2018-10-06T09:53:49.271Z,11.53
2018-10-06T09:56:18.148Z,12.60
2018-10-06T09:58:47.135Z,11.45
2018-10-06T10:01:33.885Z,10.68
2018-10-06T10:04:28.075Z,9.53
2018-10-06T10:06:57.128Z,9.23
2018-10-06T10:09:26.648Z,10.05
2018-10-06T10:11:55.583Z,10.05
2018-10-06T10:14:25.196Z,13.30
2018-10-06T10:16:54.238Z,13.05
2018-10-06T10:19:23.206Z,11.80
2018-10-06T10:21:52.284Z,12.20
2018-10-06T10:24:21.187Z,19.73
2018-10-06T10:26:50.173Z,12.10
2018-10-06T10:29:19.118Z,11.78
2018-10-06T10:31:48.069Z,13.45
2018-10-06T10:34:17.152Z,11.90
2018-10-06T10:36:46.045Z,11.95
2018-10-06T10:39:15.082Z,13.00
2018-10-06T10:41:43.968Z,12.00
2018-10-06T10:44:13.046Z,13.18
2018-10-06T10:46:42.013Z,13.10
2018-10-06T10:49:11.041Z,15.18
2018-10-06T10:51:40.031Z,14.43
2018-10-06T10:54:09.076Z,12.98
2018-10-06T10:56:38.302Z,11.95
2018-10-06T10:59:07.545Z,13.20
2018-10-06T11:01:36.556Z,13.32
2018-10-06T11:04:05.709Z,35.70
2018-10-06T11:06:34.600Z,13.48
2018-10-06T11:09:04.846Z,13.30
2018-10-06T11:11:33.859Z,12.95
2018-10-06T11:14:02.868Z,14.73
2018-10-06T11:16:31.867Z,13.85
2018-10-06T11:19:00.829Z,12.28
2018-10-06T11:21:30.691Z,12.55
2018-10-06T11:24:00.449Z,14.85
2018-10-06T11:26:29.865Z,13.85
2018-10-06T11:28:58.923Z,12.97
2018-10-06T11:31:27.922Z,14.13
2018-10-06T11:33:56.862Z,12.95
2018-10-06T11:36:25.858Z,11.90
2018-10-06T11:38:54.807Z,12.15
2018-10-06T11:41:23.773Z,11.75
2018-10-06T11:43:53.029Z,11.70
2018-10-06T11:46:22.217Z,12.20
2018-10-06T11:48:51.159Z,12.45
2018-10-06T11:51:20.390Z,11.15
2018-10-06T11:53:49.348Z,11.70
2018-10-06T11:56:18.338Z,12.73
2018-10-06T11:58:47.317Z,10.88
2018-10-06T12:01:16.445Z,12.00
2018-10-06T12:03:45.572Z,11.68
2018-10-06T12:06:14.609Z,11.10
2018-10-06T12:08:43.536Z,10.08
2018-10-06T12:11:12.527Z,14.35
2018-10-06T12:13:41.469Z,22.40
2018-10-06T12:16:10.516Z,24.32
2018-10-06T12:18:39.477Z,41.68
2018-10-06T12:21:08.528Z,10.03
2018-10-06T12:23:37.548Z,9.98
2018-10-06T12:26:06.648Z,10.13
2018-10-06T12:28:35.569Z,9.35
2018-10-06T12:31:04.767Z,13.13
2018-10-06T12:33:33.942Z,15.98
2018-10-06T12:36:03.309Z,10.63
2018-10-06T12:38:32.249Z,9.43
2018-10-06T12:41:01.232Z,9.40
2018-10-06T12:43:30.229Z,10.55
2018-10-06T12:45:59.218Z,8.68
2018-10-06T12:48:28.176Z,9.38
2018-10-06T12:50:57.111Z,10.13
2018-10-06T12:53:26.157Z,8.73
2018-10-06T12:55:55.164Z,9.08
2018-10-06T12:58:24.220Z,9.58
2018-10-06T13:00:54.495Z,9.88
2018-10-06T13:03:24.313Z,9.00
2018-10-06T13:05:57.411Z,8.90
2018-10-06T13:08:26.425Z,9.08
2018-10-06T13:10:55.350Z,8.90
2018-10-06T13:13:24.344Z,8.05
2018-10-06T13:15:53.387Z,9.90
2018-10-06T13:18:22.367Z,10.03
2018-10-06T13:20:51.345Z,8.95
2018-10-06T13:23:20.359Z,9.70
2018-10-06T13:25:49.292Z,11.40
2018-10-06T13:28:20.855Z,9.93
2018-10-06T13:30:51.448Z,53.05
2018-10-06T13:33:23.665Z,15.50
2018-10-06T13:35:53.419Z,11.87
2018-10-06T13:38:26.102Z,10.15
2018-10-06T13:41:02.269Z,8.25
2018-10-06T13:43:37.928Z,10.43
2018-10-06T13:46:07.868Z,11.75
2018-10-06T13:48:38.290Z,10.32
2018-10-06T13:51:08.834Z,9.13
2018-10-06T13:53:38.729Z,9.30
2018-10-06T13:56:11.554Z,10.58
2018-10-06T13:58:49.461Z,9.98
2018-10-06T14:01:21.251Z,10.60
2018-10-06T14:03:55.445Z,11.73
2018-10-06T14:06:25.118Z,11.75
2018-10-06T14:08:55.418Z,10.53
2018-10-06T14:11:31.015Z,9.78
2018-10-06T14:14:03.385Z,10.38
2018-10-06T14:16:33.427Z,42.17
2018-10-06T14:19:02.689Z,10.55
2018-10-06T14:21:33.158Z,10.88
2018-10-06T14:24:06.424Z,10.15
2018-10-06T14:26:39.252Z,9.88
2018-10-06T14:29:12.884Z,9.95
2018-10-06T14:31:44.917Z,10.55
2018-10-06T14:34:15.395Z,9.73
2018-10-06T14:36:47.923Z,10.18
2018-10-06T14:39:22.052Z,10.95
2018-10-06T14:42:00.999Z,10.48
2018-10-06T14:44:37.121Z,11.05
2018-10-06T14:47:13.012Z,10.68
2018-10-06T14:49:42.910Z,9.95
2018-10-06T14:52:19.237Z,9.30
2018-10-06T14:54:48.861Z,10.08
2018-10-06T14:57:18.752Z,9.53
2018-10-06T14:59:48.210Z,20.70
2018-10-06T15:02:18.199Z,10.40
2018-10-06T15:04:48.376Z,29.63
2018-10-06T15:07:23.646Z,15.98
2018-10-06T15:10:00.423Z,10.82
2018-10-06T15:12:32.893Z,10.00
2018-10-06T15:15:40.199Z,10.00
2018-10-06T15:18:28.181Z,9.60
2018-10-06T15:21:00.376Z,8.65
2018-10-06T15:23:35.475Z,10.32
2018-10-06T15:26:06.291Z,9.93
2018-10-06T15:28:38.244Z,9.33
2018-10-06T15:31:08.384Z,23.00
2018-10-06T15:33:38.752Z,62.53
2018-10-06T15:36:29.574Z,13.68
2018-10-06T15:39:27.885Z,8.38
2018-10-06T15:42:08.067Z,9.08
2018-10-06T15:44:40.323Z,8.20
2018-10-06T15:47:15.257Z,8.08
2018-10-06T15:49:47.576Z,8.23
2018-10-06T15:52:44.794Z,74.00
2018-10-06T15:55:22.598Z,35.55
2018-10-06T15:57:55.621Z,14.53
2018-10-06T16:00:27.943Z,7.58
2018-10-06T16:03:00.627Z,7.72
2018-10-06T16:05:33.574Z,7.55
2018-10-06T16:08:03.611Z,7.00
2018-10-06T16:10:34.350Z,7.17
2018-10-06T16:13:04.380Z,7.42
2018-10-06T16:15:33.857Z,10.78
2018-10-06T16:18:03.826Z,8.28
2018-10-06T16:20:34.126Z,8.60
2018-10-06T16:23:03.980Z,7.80
2018-10-06T16:25:33.860Z,9.43
2018-10-06T16:28:02.847Z,9.53
2018-10-06T16:30:31.815Z,9.83
2018-10-06T16:33:00.797Z,9.88
2018-10-06T16:35:29.932Z,11.12
2018-10-06T16:37:58.854Z,11.90
2018-10-06T16:40:27.832Z,11.93
2018-10-06T16:42:56.783Z,10.70
2018-10-06T16:45:25.751Z,11.50
2018-10-06T16:47:55.358Z,14.60
2018-10-06T16:50:24.304Z,14.43
2018-10-06T16:52:53.286Z,17.57
2018-10-06T16:55:22.273Z,19.95
2018-10-06T16:58:00.969Z,20.50
2018-10-06T17:00:34.816Z,28.43
2018-10-06T17:03:09.650Z,21.42
2018-10-06T17:05:38.628Z,18.80
2018-10-06T17:08:07.631Z,43.20
2018-10-06T17:10:36.610Z,22.23
2018-10-06T17:13:05.604Z,19.87
2018-10-06T17:15:34.709Z,19.47
2018-10-06T17:18:03.783Z,28.38
2018-10-06T17:20:32.850Z,48.50
2018-10-06T17:23:02.306Z,34.03
2018-10-06T17:25:31.319Z,26.40
2018-10-06T17:28:00.276Z,22.77
2018-10-06T17:30:29.220Z,42.60
2018-10-06T17:32:58.196Z,22.73
2018-10-06T17:35:27.135Z,19.67
2018-10-06T17:37:56.138Z,19.73
2018-10-06T17:40:25.152Z,23.02
2018-10-06T17:42:54.250Z,23.40
2018-10-06T17:45:23.321Z,25.57
2018-10-06T17:47:52.366Z,23.30
2018-10-06T17:50:21.514Z,26.27
2018-10-06T17:52:50.345Z,21.43
2018-10-06T17:55:19.337Z,20.33
2018-10-06T17:57:48.304Z,30.37
2018-10-06T18:00:17.349Z,22.97
2018-10-06T18:02:46.319Z,20.70
2018-10-06T18:05:15.240Z,50.13
2018-10-06T18:07:44.184Z,22.90
2018-10-06T18:10:13.151Z,28.80
2018-10-06T18:12:42.106Z,27.90
2018-10-06T18:15:11.051Z,22.90
2018-10-06T18:17:40.059Z,22.63
2018-10-06T18:20:09.109Z,20.83
2018-10-06T18:22:37.992Z,22.17
2018-10-06T18:25:06.917Z,21.77
2018-10-06T18:27:35.874Z,22.43
2018-10-06T18:30:05.058Z,23.03
2018-10-06T18:32:34.093Z,22.20
2018-10-06T18:35:03.055Z,28.77
2018-10-06T18:37:32.028Z,25.95
2018-10-06T18:40:01.238Z,21.20
2018-10-06T18:42:30.332Z,21.23
2018-10-06T18:44:59.356Z,26.90
2018-10-06T18:47:28.375Z,29.57
2018-10-06T18:49:58.376Z,25.03
2018-10-06T18:52:27.444Z,34.97
2018-10-06T18:54:56.318Z,27.63
2018-10-06T18:57:25.372Z,50.90
2018-10-06T18:59:54.298Z,40.30
2018-10-06T19:02:23.245Z,30.57
2018-10-06T19:04:52.339Z,27.57
2018-10-06T19:07:21.334Z,27.57
2018-10-06T19:09:50.451Z,40.92
2018-10-06T19:12:19.422Z,59.23
2018-10-06T19:14:48.365Z,86.20
2018-10-06T19:17:17.515Z,61.15
2018-10-06T19:19:46.475Z,39.00
2018-10-06T19:22:15.534Z,34.57
2018-10-06T19:24:44.952Z,37.90
2018-10-06T19:27:14.895Z,36.67
2018-10-06T19:29:44.889Z,36.23
2018-10-06T19:32:14.080Z,57.53
2018-10-06T19:34:43.759Z,41.57
2018-10-06T19:37:15.432Z,43.53
2018-10-06T19:39:45.119Z,41.83
2018-10-06T19:42:17.819Z,45.50
2018-10-06T19:44:49.025Z,53.48
2018-10-06T19:47:18.658Z,46.97
2018-10-06T19:49:48.464Z,47.30
2018-10-06T19:52:18.299Z,48.83
2018-10-06T19:54:47.889Z,47.60
2018-10-06T19:57:19.019Z,47.80
2018-10-06T19:59:48.496Z,49.13
2018-10-06T20:02:19.592Z,47.93
2018-10-06T20:04:49.558Z,50.90
2018-10-06T20:07:18.756Z,53.73
2018-10-06T20:09:49.009Z,53.70
2018-10-06T20:12:21.538Z,55.87
2018-10-06T20:14:51.148Z,55.13
2018-10-06T20:17:23.583Z,57.13
2018-10-06T20:19:53.571Z,57.60
2018-10-06T20:22:23.480Z,56.43
2018-10-06T20:24:52.963Z,60.77
2018-10-06T20:27:22.853Z,73.20
2018-10-06T20:29:52.351Z,62.47
2018-10-06T20:32:23.561Z,63.93
2018-10-06T20:34:53.444Z,63.80
2018-10-06T20:37:22.979Z,61.40
2018-10-06T20:39:52.794Z,61.73
2018-10-06T20:42:22.425Z,63.27
2018-10-06T20:44:52.426Z,64.03
2018-10-06T20:47:22.631Z,66.40
2018-10-06T20:49:53.059Z,65.63
2018-10-06T20:52:25.145Z,65.87
2018-10-06T20:54:53.046Z,66.10
2018-10-06T20:57:22.378Z,67.80
2018-10-06T20:59:55.931Z,68.67
2018-10-06T21:02:25.123Z,71.77
2018-10-06T21:04:54.528Z,72.10
2018-10-06T21:07:24.148Z,71.03
2018-10-06T21:09:54.026Z,72.67
2018-10-06T21:12:26.742Z,71.60
2018-10-06T21:14:59.517Z,72.53
2018-10-06T21:17:29.143Z,70.90
2018-10-06T21:19:59.062Z,71.90
2018-10-06T21:22:28.866Z,70.60
2018-10-06T21:24:58.891Z,73.03
2018-10-06T21:27:29.173Z,71.70
2018-10-06T21:29:58.479Z,72.80
2018-10-06T21:32:27.918Z,71.90
2018-10-06T21:34:59.762Z,75.17
2018-10-06T21:37:28.894Z,71.03
2018-10-06T21:40:13.046Z,73.03
2018-10-06T21:42:41.969Z,71.40
2018-10-06T21:45:10.975Z,73.20
2018-10-06T21:47:39.913Z,70.47
2018-10-06T21:50:08.859Z,73.13
2018-10-06T21:52:37.803Z,74.10
2018-10-06T21:55:06.755Z,70.23
2018-10-06T21:57:35.665Z,68.97
2018-10-06T22:00:05.062Z,68.10
2018-10-06T22:02:33.982Z,69.23
2018-10-06T22:05:02.925Z,65.83
2018-10-06T22:07:31.886Z,67.73
2018-10-06T22:10:00.824Z,65.30
2018-10-06T22:12:29.764Z,67.37
2018-10-06T22:14:58.702Z,62.87
2018-10-06T22:17:27.652Z,64.67
2018-10-06T22:19:56.567Z,62.80
2018-10-06T22:22:25.519Z,60.77
2018-10-06T22:24:54.444Z,59.27
2018-10-06T22:27:23.434Z,60.17
2018-10-06T22:29:52.357Z,57.00
2018-10-06T22:32:21.328Z,54.27
2018-10-06T22:34:50.248Z,54.60
2018-10-06T22:37:19.193Z,52.23
2018-10-06T22:39:48.113Z,51.13
2018-10-06T22:42:17.065Z,49.93
2018-10-06T22:44:46.008Z,48.03
2018-10-06T22:47:14.952Z,45.90
2018-10-06T22:49:43.930Z,45.67
2018-10-06T22:52:12.849Z,45.00
2018-10-06T22:54:41.802Z,43.27
2018-10-06T22:57:10.768Z,51.70
2018-10-06T22:59:39.704Z,42.57
2018-10-06T23:02:08.664Z,38.77
2018-10-06T23:04:37.636Z,35.80
2018-10-06T23:07:06.649Z,34.67
2018-10-06T23:09:35.623Z,30.13
2018-10-06T23:12:04.562Z,28.50
2018-10-06T23:14:33.480Z,30.17
2018-10-06T23:17:02.420Z,26.97
2018-10-06T23:19:31.390Z,25.80
2018-10-06T23:22:00.320Z,25.07
2018-10-06T23:24:29.272Z,25.20
2018-10-06T23:26:58.252Z,24.20
2018-10-06T23:29:27.137Z,26.62
2018-10-06T23:31:56.085Z,20.43
2018-10-06T23:34:25.007Z,20.13
2018-10-06T23:36:54.003Z,18.90
2018-10-06T23:39:22.924Z,17.57
2018-10-06T23:41:51.896Z,19.65
2018-10-06T23:44:20.827Z,15.50
2018-10-06T23:46:49.781Z,13.27
2018-10-06T23:49:18.711Z,12.50
2018-10-06T23:51:47.667Z,14.40
2018-10-06T23:54:16.592Z,11.10
2018-10-06T23:56:45.562Z,12.23
2018-10-06T23:59:14.492Z,8.73
